Ottertail, Minnesota
Current Conditions -  °F | °C
As of 2:53 PM on Tuesday 25 Nov 2014 (Local Time) from KADC Reporting Station
Overcast Overcast  
Wind Chill: 13°   Ceiling: 2100
Heat Index: 21°   Visibility: 10mi
Dew Point: 10°   Wind: 7mph
Humidity: 63%   Direction: 150°SSE
Pressure: 29.94"   Gusts: NA
Location:  46.43°N, 95.56°W
Report Text: KADC 252053Z AUTO 15006KT 10SM OVC021 M06/M12 A2994 RMK AO2
Loading
Personal Weather Stations






























Interactive Weather Map New forecast layout! Learn more

10-Day Weather Forecast

Advertisements
Track Severe Weather on mobile